createdAt,value
2023-03-03T00:00:03.275Z,20.10
2023-03-03T00:02:29.951Z,20.10
2023-03-03T00:04:56.770Z,20.20
2023-03-03T00:07:23.447Z,20.90
2023-03-03T00:09:50.680Z,21.10
2023-03-03T00:12:27.840Z,21.20
2023-03-03T00:14:54.888Z,21.00
2023-03-03T00:17:25.837Z,21.30
2023-03-03T00:19:52.988Z,21.60
2023-03-03T00:22:28.170Z,21.70
2023-03-03T00:24:54.828Z,22.10
2023-03-03T00:27:29.863Z,22.20
2023-03-03T00:29:57.744Z,22.20
2023-03-03T00:32:30.559Z,22.20
2023-03-03T00:35:01.615Z,22.50
2023-03-03T00:37:30.163Z,22.60
2023-03-03T00:40:13.914Z,22.90
2023-03-03T00:42:40.956Z,23.10
2023-03-03T00:45:36.975Z,22.90
2023-03-03T00:48:16.049Z,22.80
2023-03-03T00:50:43.433Z,24.10
2023-03-03T00:53:19.713Z,24.10
2023-03-03T00:55:47.280Z,24.10
2023-03-03T00:58:14.180Z,24.10
2023-03-03T01:00:41.369Z,24.40
2023-03-03T01:03:09.418Z,24.40
2023-03-03T01:05:36.516Z,24.00
2023-03-03T01:08:03.757Z,24.00
2023-03-03T01:10:32.262Z,23.90
2023-03-03T01:12:58.976Z,23.90
2023-03-03T01:15:25.646Z,24.10
2023-03-03T01:17:52.333Z,23.90
2023-03-03T01:20:19.160Z,23.90
2023-03-03T01:22:45.767Z,24.50
2023-03-03T01:25:12.398Z,24.10
2023-03-03T01:27:39.313Z,23.90
2023-03-03T01:30:06.636Z,23.90
2023-03-03T01:32:33.501Z,24.00
2023-03-03T01:35:00.248Z,23.90
2023-03-03T01:37:26.862Z,23.90
2023-03-03T01:39:54.173Z,23.90
2023-03-03T01:42:21.230Z,23.90
2023-03-03T01:44:47.905Z,23.80
2023-03-03T01:47:17.473Z,24.40
2023-03-03T01:49:55.694Z,24.20
2023-03-03T01:52:29.464Z,24.10
2023-03-03T01:54:59.614Z,24.80
2023-03-03T01:57:28.196Z,24.50
2023-03-03T01:59:55.353Z,25.00
2023-03-03T02:02:22.114Z,24.40
2023-03-03T02:04:49.923Z,23.80
2023-03-03T02:07:17.661Z,23.60
2023-03-03T02:09:44.249Z,23.80
2023-03-03T02:12:12.399Z,23.70
2023-03-03T02:14:39.048Z,25.20
2023-03-03T02:17:05.809Z,25.70
2023-03-03T02:19:35.489Z,26.10
2023-03-03T02:22:02.379Z,25.60
2023-03-03T02:24:34.044Z,24.70
2023-03-03T02:27:00.862Z,24.50
2023-03-03T02:29:27.472Z,24.80
2023-03-03T02:31:54.153Z,25.20
2023-03-03T02:34:20.898Z,24.40
2023-03-03T02:36:47.562Z,23.60
2023-03-03T02:39:16.218Z,23.70
2023-03-03T02:41:44.821Z,23.60
2023-03-03T02:44:12.838Z,24.90
2023-03-03T02:46:40.793Z,24.70
2023-03-03T02:49:08.960Z,24.80
2023-03-03T02:51:35.742Z,25.30
2023-03-03T02:54:02.373Z,25.50
2023-03-03T02:56:29.004Z,25.30
2023-03-03T02:58:55.936Z,24.90
2023-03-03T03:01:22.998Z,25.20
2023-03-03T03:03:49.792Z,24.90
2023-03-03T03:06:16.475Z,24.90
2023-03-03T03:08:43.082Z,25.50
2023-03-03T03:11:09.737Z,25.50
2023-03-03T03:13:36.504Z,25.50
2023-03-03T03:16:03.188Z,25.60
2023-03-03T03:18:29.777Z,25.60
2023-03-03T03:20:56.424Z,25.30
2023-03-03T03:23:23.075Z,26.00
2023-03-03T03:25:49.729Z,26.50
2023-03-03T03:28:17.022Z,26.60
2023-03-03T03:30:45.520Z,26.60
2023-03-03T03:33:12.178Z,27.50
2023-03-03T03:35:40.529Z,28.30
2023-03-03T03:38:07.257Z,28.40
2023-03-03T03:40:33.866Z,28.30
2023-03-03T03:43:00.464Z,28.10
2023-03-03T03:45:27.096Z,28.10
2023-03-03T03:47:53.745Z,28.20
2023-03-03T03:50:20.346Z,28.80
2023-03-03T03:52:47.312Z,29.70
2023-03-03T03:55:14.956Z,29.70
2023-03-03T03:57:42.069Z,32.10
2023-03-03T04:00:10.040Z,32.10
2023-03-03T04:02:36.888Z,32.10
2023-03-03T04:05:03.866Z,32.00
2023-03-03T04:07:30.534Z,32.00
2023-03-03T04:09:57.191Z,32.50
2023-03-03T04:12:23.811Z,31.20
2023-03-03T04:14:50.446Z,31.20
2023-03-03T04:17:17.612Z,32.00
2023-03-03T04:19:44.234Z,32.20
2023-03-03T04:22:10.922Z,31.60
2023-03-03T04:24:37.490Z,30.80
2023-03-03T04:27:04.154Z,30.60
2023-03-03T04:29:30.736Z,31.30
2023-03-03T04:31:57.353Z,32.00
2023-03-03T04:34:24.049Z,32.40
2023-03-03T04:36:50.726Z,32.00
2023-03-03T04:39:17.352Z,32.00
2023-03-03T04:41:44.184Z,32.10
2023-03-03T04:44:10.754Z,32.70
2023-03-03T04:46:37.464Z,33.10
2023-03-03T04:49:06.087Z,32.00
2023-03-03T04:51:33.934Z,32.40
2023-03-03T04:54:00.557Z,32.50
2023-03-03T04:56:28.480Z,32.00
2023-03-03T04:58:55.141Z,33.20
2023-03-03T05:01:21.949Z,34.60
2023-03-03T05:03:48.602Z,36.10
2023-03-03T05:06:15.505Z,36.20
2023-03-03T05:08:43.202Z,35.40
2023-03-03T05:11:09.878Z,34.00
2023-03-03T05:13:36.540Z,35.20
2023-03-03T05:16:03.180Z,35.10
2023-03-03T05:18:29.847Z,35.20
2023-03-03T05:20:56.494Z,34.80
2023-03-03T05:23:23.109Z,34.00
2023-03-03T05:25:50.308Z,34.90
2023-03-03T05:28:17.461Z,37.10
2023-03-03T05:30:44.157Z,36.10
2023-03-03T05:33:13.823Z,36.10
2023-03-03T05:35:40.607Z,35.10
2023-03-03T05:38:07.260Z,35.50
2023-03-03T05:40:33.907Z,35.80
2023-03-03T05:43:00.671Z,36.50
2023-03-03T05:45:27.307Z,38.30
2023-03-03T05:47:54.102Z,38.20
2023-03-03T05:50:21.651Z,37.80
2023-03-03T05:52:51.831Z,37.00
2023-03-03T05:55:18.988Z,38.30
2023-03-03T05:57:45.737Z,39.40
2023-03-03T06:00:12.975Z,40.60
2023-03-03T06:02:39.943Z,40.50
2023-03-03T06:05:06.887Z,39.70
2023-03-03T06:07:33.699Z,40.50
2023-03-03T06:10:00.290Z,42.40
2023-03-03T06:12:26.913Z,42.90
2023-03-03T06:14:53.522Z,43.10
2023-03-03T06:17:20.112Z,42.50
2023-03-03T06:19:47.741Z,42.50
2023-03-03T06:22:14.373Z,42.50
2023-03-03T06:24:40.986Z,42.50
2023-03-03T06:27:07.807Z,42.60
2023-03-03T06:29:34.495Z,42.60
2023-03-03T06:32:01.208Z,42.60
2023-03-03T06:34:27.843Z,42.70
2023-03-03T06:36:54.552Z,42.70
2023-03-03T06:39:21.161Z,42.70
2023-03-03T06:41:47.790Z,43.20
2023-03-03T06:44:14.501Z,42.90
2023-03-03T06:46:41.205Z,43.00
2023-03-03T06:49:07.858Z,42.20
2023-03-03T06:51:35.876Z,41.20
2023-03-03T06:54:06.562Z,40.60
2023-03-03T06:56:36.064Z,41.70
2023-03-03T06:59:03.620Z,40.50
2023-03-03T07:01:37.219Z,38.70
2023-03-03T07:04:23.157Z,38.90
2023-03-03T07:06:49.800Z,37.80
2023-03-03T07:09:24.123Z,37.10
2023-03-03T07:11:56.514Z,34.00
2023-03-03T07:14:23.174Z,33.20
2023-03-03T07:16:58.104Z,30.60
2023-03-03T07:19:30.548Z,27.10
2023-03-03T07:21:57.783Z,26.60
2023-03-03T07:24:28.957Z,25.00
2023-03-03T07:27:15.853Z,24.50
2023-03-03T07:29:42.527Z,24.60
2023-03-03T07:32:27.785Z,23.00
2023-03-03T07:34:55.561Z,21.60
2023-03-03T07:37:25.146Z,20.20
2023-03-03T07:39:51.765Z,16.80
2023-03-03T07:42:27.848Z,16.20
2023-03-03T07:44:59.040Z,14.60
2023-03-03T07:47:28.143Z,13.20
2023-03-03T07:50:00.203Z,10.20
2023-03-03T07:52:43.680Z,7.20
2023-03-03T07:55:29.148Z,2.70
2023-03-03T07:57:59.142Z,1.00
2023-03-03T08:00:25.993Z,1.00
2023-03-03T08:03:02.676Z,1.00
2023-03-03T08:05:29.397Z,1.00
2023-03-03T08:08:18.799Z,1.00
2023-03-03T08:10:45.511Z,1.00
2023-03-03T08:13:22.291Z,1.00
2023-03-03T08:15:52.651Z,1.00
2023-03-03T08:18:22.639Z,1.00
2023-03-03T08:20:50.466Z,1.00
2023-03-03T08:23:18.083Z,1.00
2023-03-03T08:25:45.058Z,1.00
2023-03-03T08:28:12.612Z,1.00
2023-03-03T08:30:39.456Z,1.00
2023-03-03T08:33:06.240Z,1.00
2023-03-03T08:35:32.922Z,1.00
2023-03-03T08:37:59.578Z,1.00
2023-03-03T08:40:26.272Z,1.00
2023-03-03T08:42:54.347Z,1.00
2023-03-03T08:45:21.189Z,1.00
2023-03-03T08:47:47.839Z,1.00
2023-03-03T08:50:15.309Z,1.00
2023-03-03T08:52:42.215Z,1.00
2023-03-03T08:55:09.052Z,1.00
2023-03-03T08:57:35.815Z,1.00
2023-03-03T09:00:02.472Z,1.00
2023-03-03T09:02:29.342Z,1.00
2023-03-03T09:04:55.988Z,1.00
2023-03-03T09:07:22.828Z,1.00
2023-03-03T09:09:49.442Z,1.00
2023-03-03T09:12:22.576Z,1.00
2023-03-03T09:14:50.766Z,1.00
2023-03-03T09:17:25.177Z,1.00
2023-03-03T09:19:52.735Z,1.00
2023-03-03T09:22:20.738Z,1.00
2023-03-03T09:24:47.884Z,1.00
2023-03-03T09:27:17.759Z,1.00
2023-03-03T09:29:44.351Z,1.00
2023-03-03T09:32:19.869Z,1.00
2023-03-03T09:34:46.472Z,1.00
2023-03-03T09:37:15.326Z,1.00
2023-03-03T09:39:42.253Z,1.00
2023-03-03T09:42:39.035Z,1.00
2023-03-03T09:45:17.983Z,1.00
2023-03-03T09:47:44.581Z,1.00
2023-03-03T09:50:20.455Z,1.00
2023-03-03T09:52:53.719Z,1.00
2023-03-03T09:55:38.395Z,1.00
2023-03-03T09:58:23.194Z,1.00
2023-03-03T10:00:56.156Z,1.00
2023-03-03T10:03:22.821Z,1.00
2023-03-03T10:05:57.439Z,1.00
2023-03-03T10:08:42.516Z,1.00
2023-03-03T10:11:13.076Z,1.00
2023-03-03T10:13:42.807Z,1.00
2023-03-03T10:16:32.558Z,1.00
2023-03-03T10:19:03.580Z,1.00
2023-03-03T10:21:39.650Z,1.00
2023-03-03T10:24:15.482Z,1.00
2023-03-03T10:27:10.619Z,1.00
2023-03-03T10:29:41.625Z,1.00
2023-03-03T10:32:20.851Z,1.00
2023-03-03T10:35:02.735Z,1.00
2023-03-03T10:37:29.573Z,1.00
2023-03-03T10:40:11.618Z,1.00
2023-03-03T10:42:58.038Z,1.00
2023-03-03T10:45:40.043Z,1.00
2023-03-03T10:48:06.764Z,1.00
2023-03-03T10:50:52.192Z,1.00
2023-03-03T10:53:18.742Z,1.00
2023-03-03T10:55:53.381Z,1.00
2023-03-03T10:58:31.791Z,1.00
2023-03-03T11:01:01.532Z,1.00
2023-03-03T11:03:42.616Z,1.00
2023-03-03T11:06:20.379Z,1.00
2023-03-03T11:08:54.749Z,1.00
2023-03-03T11:11:30.271Z,1.00
2023-03-03T11:14:03.525Z,1.00
2023-03-03T11:16:36.123Z,1.00
2023-03-03T11:19:14.860Z,1.00
2023-03-03T11:21:41.432Z,1.00
2023-03-03T11:24:15.258Z,1.00
2023-03-03T11:26:44.897Z,1.00
2023-03-03T11:29:14.544Z,1.00
2023-03-03T11:31:44.174Z,1.00
2023-03-03T11:34:13.927Z,1.00
2023-03-03T11:36:49.291Z,1.00
2023-03-03T11:39:18.029Z,1.00
2023-03-03T11:41:47.712Z,1.00
2023-03-03T11:44:33.231Z,1.00
2023-03-03T11:47:18.978Z,1.00
2023-03-03T11:49:49.060Z,1.00
2023-03-03T11:52:15.619Z,1.00
2023-03-03T11:54:57.645Z,1.00
2023-03-03T11:57:32.588Z,1.00
2023-03-03T12:00:18.872Z,1.00
2023-03-03T12:02:59.028Z,1.00
2023-03-03T12:05:25.730Z,1.00
2023-03-03T12:07:57.078Z,1.00
2023-03-03T12:10:29.855Z,1.00
2023-03-03T12:12:59.600Z,1.00
2023-03-03T12:15:45.057Z,1.00
2023-03-03T12:18:30.759Z,1.00
2023-03-03T12:20:57.304Z,1.00
2023-03-03T12:23:30.177Z,1.00
2023-03-03T12:25:59.904Z,1.00
2023-03-03T12:28:37.762Z,1.00
2023-03-03T12:31:04.487Z,1.00
2023-03-03T12:33:39.347Z,1.00
2023-03-03T12:36:24.911Z,1.00
2023-03-03T12:38:57.853Z,1.00
2023-03-03T12:41:43.373Z,1.00
2023-03-03T12:44:19.484Z,1.00
2023-03-03T12:46:46.180Z,1.00
2023-03-03T12:49:13.116Z,1.00
2023-03-03T12:51:55.422Z,1.00
2023-03-03T12:54:28.317Z,1.00
2023-03-03T12:57:09.213Z,1.00
2023-03-03T12:59:54.729Z,1.00
2023-03-03T13:02:40.682Z,1.00
2023-03-03T13:05:21.949Z,1.00
2023-03-03T13:07:53.446Z,1.00
2023-03-03T13:10:23.165Z,1.00
2023-03-03T13:13:22.324Z,1.00
2023-03-03T13:15:58.355Z,1.00
2023-03-03T13:18:38.658Z,1.00
2023-03-03T13:21:14.994Z,1.00
2023-03-03T13:23:54.503Z,1.00
2023-03-03T13:26:24.303Z,1.00
2023-03-03T13:29:06.038Z,1.00
2023-03-03T13:31:39.005Z,1.00
2023-03-03T13:34:08.287Z,1.00
2023-03-03T13:36:37.119Z,1.00
2023-03-03T13:39:15.472Z,1.00
2023-03-03T13:41:46.918Z,1.00
2023-03-03T13:44:13.718Z,1.00
2023-03-03T13:46:41.506Z,1.00
2023-03-03T13:49:18.007Z,1.00
2023-03-03T13:52:01.506Z,1.00
2023-03-03T13:54:28.116Z,1.00
2023-03-03T13:57:13.555Z,1.00
2023-03-03T13:59:59.205Z,1.00
2023-03-03T14:02:38.207Z,1.00
2023-03-03T14:05:12.689Z,1.00
2023-03-03T14:07:43.554Z,1.00
2023-03-03T14:10:19.955Z,1.00
2023-03-03T14:12:52.726Z,1.00
2023-03-03T14:15:23.844Z,1.00
2023-03-03T14:17:59.739Z,1.00
2023-03-03T14:20:26.330Z,1.00
2023-03-03T14:23:03.779Z,1.00
2023-03-03T14:25:50.702Z,1.00
2023-03-03T14:28:17.575Z,1.00
2023-03-03T14:30:44.321Z,1.00
2023-03-03T14:33:10.992Z,1.00
2023-03-03T14:35:39.621Z,1.00
2023-03-03T14:38:12.242Z,1.00
2023-03-03T14:40:42.797Z,1.00
2023-03-03T14:43:24.990Z,1.00
2023-03-03T14:45:52.459Z,1.00
2023-03-03T14:48:24.191Z,1.00
2023-03-03T14:50:58.388Z,1.00
2023-03-03T14:53:33.400Z,1.00
2023-03-03T14:56:18.732Z,1.00
2023-03-03T14:58:45.524Z,1.00
2023-03-03T15:01:15.383Z,1.00
2023-03-03T15:04:08.545Z,1.00
2023-03-03T15:06:41.276Z,1.00
2023-03-03T15:09:26.716Z,1.00
2023-03-03T15:11:54.473Z,1.00
2023-03-03T15:14:26.318Z,1.00
2023-03-03T15:16:53.146Z,1.00
2023-03-03T15:19:42.850Z,1.00
2023-03-03T15:22:12.917Z,1.00
2023-03-03T15:24:47.328Z,1.00
2023-03-03T15:27:19.469Z,1.00
2023-03-03T15:30:09.261Z,1.00
2023-03-03T15:32:42.258Z,1.00
2023-03-03T15:35:11.776Z,1.00
2023-03-03T15:37:45.232Z,1.00
2023-03-03T15:40:28.088Z,1.00
2023-03-03T15:42:58.066Z,1.00
2023-03-03T15:45:43.317Z,1.00
2023-03-03T15:48:13.761Z,1.00
2023-03-03T15:50:40.368Z,1.00
2023-03-03T15:53:18.208Z,1.00
2023-03-03T15:56:01.672Z,1.00
2023-03-03T15:58:36.301Z,1.00
2023-03-03T16:01:23.739Z,1.00
2023-03-03T16:03:56.043Z,1.00
2023-03-03T16:06:26.577Z,1.00
2023-03-03T16:09:06.431Z,1.00
2023-03-03T16:11:42.076Z,1.00
2023-03-03T16:14:19.596Z,1.00
2023-03-03T16:16:49.394Z,1.00
2023-03-03T16:19:23.050Z,1.00
2023-03-03T16:21:57.983Z,1.00
2023-03-03T16:24:45.639Z,1.00
2023-03-03T16:27:16.435Z,1.00
2023-03-03T16:29:51.101Z,1.00
2023-03-03T16:32:24.240Z,1.00
2023-03-03T16:35:00.049Z,1.00
2023-03-03T16:37:36.137Z,1.00
2023-03-03T16:40:03.268Z,1.00
2023-03-03T16:42:30.622Z,1.00
2023-03-03T16:44:57.239Z,1.00
2023-03-03T16:47:49.621Z,1.00
2023-03-03T16:50:31.208Z,1.00
2023-03-03T16:53:27.618Z,1.00
2023-03-03T16:55:54.323Z,1.00
2023-03-03T16:58:33.681Z,1.00
2023-03-03T17:01:05.979Z,1.00
2023-03-03T17:03:32.602Z,1.00
2023-03-03T17:06:02.732Z,1.00
2023-03-03T17:08:37.866Z,1.00
2023-03-03T17:11:04.552Z,1.00
2023-03-03T17:13:42.269Z,1.00
2023-03-03T17:16:17.644Z,1.00
2023-03-03T17:18:52.203Z,1.00
2023-03-03T17:21:37.781Z,1.00
2023-03-03T17:24:19.821Z,1.00
2023-03-03T17:26:52.081Z,1.00
2023-03-03T17:29:18.746Z,1.00
2023-03-03T17:31:48.464Z,1.00
2023-03-03T17:34:26.179Z,1.00
2023-03-03T17:36:59.018Z,1.00
2023-03-03T17:39:28.638Z,1.00
2023-03-03T17:42:01.950Z,1.00
2023-03-03T17:44:47.179Z,1.00
2023-03-03T17:47:24.052Z,1.00
2023-03-03T17:49:53.729Z,1.00
2023-03-03T17:52:25.607Z,1.00
2023-03-03T17:54:59.062Z,1.00
2023-03-03T17:57:25.660Z,1.00
2023-03-03T18:00:24.766Z,1.00
2023-03-03T18:03:01.258Z,1.00
2023-03-03T18:05:35.956Z,1.00
2023-03-03T18:08:22.603Z,1.00
2023-03-03T18:10:58.299Z,1.00
2023-03-03T18:13:34.958Z,1.00
2023-03-03T18:16:11.257Z,1.00
2023-03-03T18:18:50.767Z,1.00
2023-03-03T18:21:17.374Z,1.00
2023-03-03T18:23:46.590Z,1.00
2023-03-03T18:26:30.769Z,1.00
2023-03-03T18:29:09.626Z,1.00
2023-03-03T18:31:49.700Z,1.00
2023-03-03T18:34:35.238Z,1.00
2023-03-03T18:37:10.761Z,1.00
2023-03-03T18:39:48.867Z,1.00
2023-03-03T18:42:15.840Z,1.00
2023-03-03T18:44:43.371Z,1.00
2023-03-03T18:47:10.625Z,1.00
2023-03-03T18:49:49.546Z,1.00
2023-03-03T18:52:17.936Z,1.00
2023-03-03T18:54:58.702Z,1.00
2023-03-03T18:57:25.845Z,1.00
2023-03-03T18:59:55.127Z,1.00
2023-03-03T19:02:29.975Z,1.00
2023-03-03T19:05:06.122Z,1.00
2023-03-03T19:07:41.864Z,1.00
2023-03-03T19:10:20.647Z,1.00
2023-03-03T19:12:51.967Z,1.00
2023-03-03T19:15:31.193Z,1.00
2023-03-03T19:18:13.505Z,1.00
2023-03-03T19:20:41.891Z,1.00
2023-03-03T19:23:08.538Z,1.00
2023-03-03T19:25:35.706Z,1.00
2023-03-03T19:28:21.016Z,1.00
2023-03-03T19:30:51.150Z,1.00
2023-03-03T19:33:38.341Z,1.00
2023-03-03T19:36:18.374Z,1.00
2023-03-03T19:39:11.793Z,1.00
2023-03-03T19:41:45.328Z,1.00
2023-03-03T19:44:30.514Z,1.00
2023-03-03T19:47:00.090Z,1.00
2023-03-03T19:49:35.698Z,1.00
2023-03-03T19:52:05.041Z,1.00
2023-03-03T19:54:51.908Z,1.00
2023-03-03T19:57:32.535Z,1.00
2023-03-03T20:00:02.948Z,1.00
2023-03-03T20:02:45.835Z,1.00
2023-03-03T20:05:15.978Z,1.00
2023-03-03T20:08:01.320Z,1.00
2023-03-03T20:10:41.963Z,1.00
2023-03-03T20:13:13.647Z,1.00
2023-03-03T20:15:44.549Z,1.00
2023-03-03T20:18:21.416Z,1.00
2023-03-03T20:20:47.990Z,1.00
2023-03-03T20:23:32.876Z,1.00
2023-03-03T20:26:17.914Z,2.10
2023-03-03T20:29:02.912Z,2.60
2023-03-03T20:31:35.645Z,2.30
2023-03-03T20:34:02.276Z,3.60
2023-03-03T20:36:35.932Z,4.30
2023-03-03T20:39:06.590Z,4.40
2023-03-03T20:41:36.083Z,6.00
2023-03-03T20:44:21.715Z,6.50
2023-03-03T20:46:57.626Z,6.60
2023-03-03T20:49:30.600Z,6.60
2023-03-03T20:51:57.170Z,6.70
2023-03-03T20:54:35.996Z,6.60
2023-03-03T20:57:08.578Z,6.50
2023-03-03T20:59:35.141Z,7.60
2023-03-03T21:02:13.142Z,8.00
2023-03-03T21:04:39.783Z,8.50
2023-03-03T21:07:06.585Z,9.00
2023-03-03T21:09:34.806Z,9.50
2023-03-03T21:12:02.928Z,10.70
2023-03-03T21:14:34.349Z,11.40
2023-03-03T21:17:02.874Z,12.10
2023-03-03T21:19:33.935Z,13.10
2023-03-03T21:22:02.254Z,13.80
2023-03-03T21:24:48.092Z,15.50
2023-03-03T21:27:25.361Z,15.60
2023-03-03T21:30:06.006Z,15.60
2023-03-03T21:32:41.806Z,15.60
2023-03-03T21:35:24.144Z,16.60
2023-03-03T21:37:51.860Z,17.80
2023-03-03T21:40:20.947Z,18.80
2023-03-03T21:42:47.766Z,20.10
2023-03-03T21:45:15.912Z,20.70
2023-03-03T21:47:42.753Z,21.30
2023-03-03T21:50:09.596Z,21.50
2023-03-03T21:52:36.210Z,21.30
2023-03-03T21:55:02.877Z,21.70
2023-03-03T21:57:29.451Z,21.90
2023-03-03T21:59:56.053Z,22.80
2023-03-03T22:02:22.832Z,24.20
2023-03-03T22:04:49.508Z,24.40
2023-03-03T22:07:16.200Z,24.40
2023-03-03T22:09:42.810Z,24.50
2023-03-03T22:12:09.571Z,24.50
2023-03-03T22:14:36.233Z,24.40
2023-03-03T22:17:03.062Z,24.40
2023-03-03T22:19:29.755Z,24.40
2023-03-03T22:21:56.365Z,24.40
2023-03-03T22:24:22.975Z,24.40
2023-03-03T22:26:49.583Z,25.30
2023-03-03T22:29:17.134Z,27.00
2023-03-03T22:31:43.794Z,28.40
2023-03-03T22:34:10.640Z,28.30
2023-03-03T22:36:37.270Z,29.30
2023-03-03T22:39:03.910Z,28.50
2023-03-03T22:41:30.507Z,29.10
2023-03-03T22:43:57.212Z,29.10
2023-03-03T22:46:24.338Z,28.20
2023-03-03T22:48:51.020Z,28.90
2023-03-03T22:51:18.333Z,28.20
2023-03-03T22:53:44.931Z,27.40
2023-03-03T22:56:11.485Z,26.30
2023-03-03T22:58:38.117Z,26.70
2023-03-03T23:01:05.143Z,27.00
2023-03-03T23:03:32.706Z,27.10
2023-03-03T23:05:59.423Z,27.00
2023-03-03T23:08:27.511Z,26.70
2023-03-03T23:10:54.130Z,27.60
2023-03-03T23:13:20.854Z,27.90
2023-03-03T23:15:47.527Z,28.40
2023-03-03T23:18:14.192Z,28.60
2023-03-03T23:20:45.755Z,28.40
2023-03-03T23:23:12.428Z,29.10
2023-03-03T23:25:39.129Z,29.10
2023-03-03T23:28:05.994Z,29.20
2023-03-03T23:30:32.765Z,29.40
2023-03-03T23:32:59.346Z,29.70
2023-03-03T23:35:26.024Z,30.10
2023-03-03T23:37:52.695Z,30.40
2023-03-03T23:40:19.346Z,29.70
2023-03-03T23:42:46.000Z,30.20
2023-03-03T23:45:13.064Z,31.40
2023-03-03T23:47:39.922Z,32.50
2023-03-03T23:50:06.850Z,32.50
2023-03-03T23:52:33.606Z,32.50
2023-03-03T23:55:00.350Z,32.50
2023-03-03T23:57:26.948Z,32.60
2023-03-03T23:59:53.539Z,32.50
